Time;durP1;ratioP1;P1;durP2;ratioP2;P2;SDS_P1;SDS_P2;PMS_P1;PMS_P2;Temp;Humidity;BMP_temperature;BMP_pressure;BME280_temperature;BME280_humidity;BME280_pressure;Samples;Min_cycle;Max_cycle;Signal;HPM_P1;HPM_P2
2023/09/03 00:00:12;;;;;;;7.03;4.37;;;;;18.70;97427.00;;;;5038892;28;20552;-68
2023/09/03 00:03:01;;;;;;;4.97;4.23;;;;;19.10;97411.00;;;;5048594;28;20200;-70
2023/09/03 00:05:51;;;;;;;5.43;4.70;;;;;19.00;97414.00;;;;5038874;28;20604;-69
2023/09/03 00:08:41;;;;;;;5.17;4.17;;;;;18.90;97415.00;;;;5033196;28;20189;-70
2023/09/03 00:11:30;;;;;;;6.10;4.67;;;;;18.90;97418.00;;;;5040153;28;20197;-69
2023/09/03 00:14:20;;;;;;;5.17;4.70;;;;;19.00;97419.00;;;;5030752;28;20213;-69
2023/09/03 00:17:13;;;;;;;5.00;4.57;;;;;19.00;97408.00;;;;5039233;28;20225;-70
2023/09/03 00:20:03;;;;;;;4.80;4.40;;;;;19.30;97410.00;;;;5035333;28;20583;-69
2023/09/03 00:22:52;;;;;;;5.70;4.80;;;;;19.30;97403.00;;;;5035445;28;20209;-69
2023/09/03 00:25:42;;;;;;;8.13;4.60;;;;;19.10;97412.00;;;;5033025;28;20236;-69
2023/09/03 00:28:31;;;;;;;5.00;4.53;;;;;19.00;97411.00;;;;5046072;28;20188;-70
2023/09/03 00:31:21;;;;;;;4.70;4.33;;;;;19.00;97411.00;;;;5039251;28;20200;-69
2023/09/03 00:34:10;;;;;;;14.30;4.73;;;;;19.00;97404.00;;;;5044565;28;20201;-68
2023/09/03 00:36:59;;;;;;;5.57;4.97;;;;;19.00;97405.00;;;;5046958;28;20195;-69
2023/09/03 00:39:48;;;;;;;5.67;4.53;;;;;19.00;97405.00;;;;5039339;28;20197;-69
2023/09/03 00:42:39;;;;;;;5.80;5.27;;;;;19.00;97399.00;;;;5045128;28;20205;-68
2023/09/03 00:45:28;;;;;;;6.10;4.10;;;;;18.80;97386.00;;;;5035028;28;20718;-69
2023/09/03 00:48:19;;;;;;;4.73;4.33;;;;;18.70;97400.00;;;;5047916;28;20201;-69
2023/09/03 00:51:10;;;;;;;6.80;4.57;;;;;18.60;97391.00;;;;5044030;28;20208;-69
2023/09/03 00:54:02;;;;;;;7.97;4.77;;;;;18.50;97398.00;;;;5033569;28;20206;-68
2023/09/03 00:56:51;;;;;;;6.80;4.70;;;;;18.30;97394.00;;;;5037770;28;20204;-69
2023/09/03 00:59:42;;;;;;;9.07;5.03;;;;;18.60;97398.00;;;;5031072;28;20209;-69
2023/09/03 01:02:32;;;;;;;7.43;4.87;;;;;18.60;97392.00;;;;5035075;28;20200;-69
2023/09/03 01:05:21;;;;;;;8.83;4.53;;;;;18.50;97395.00;;;;5033545;28;20633;-69
2023/09/03 01:08:10;;;;;;;8.73;4.77;;;;;18.40;97402.00;;;;5041389;28;20205;-69
2023/09/03 01:11:05;;;;;;;5.53;4.93;;;;;18.10;97395.00;;;;5049974;28;20204;-68
2023/09/03 01:14:01;;;;;;;4.60;4.30;;;;;18.20;97394.00;;;;5050628;28;20204;-70
2023/09/03 01:16:58;;;;;;;5.60;4.93;;;;;18.30;97389.00;;;;5049405;28;20201;-70
2023/09/03 01:20:04;;;;;;;5.03;4.60;;;;;18.40;97382.00;;;;5043030;28;20207;-68
2023/09/03 01:23:15;;;;;;;6.70;4.73;;;;;18.60;97377.00;;;;5038504;28;20200;-68
2023/09/03 01:26:16;;;;;;;7.30;5.10;;;;;18.10;97379.00;;;;5028965;28;20221;-69
2023/09/03 01:29:06;;;;;;;5.07;4.47;;;;;18.00;97378.00;;;;5039240;28;20220;-68
2023/09/03 01:31:56;;;;;;;4.93;4.50;;;;;18.40;97374.00;;;;5041675;28;20211;-68
2023/09/03 01:34:46;;;;;;;6.67;6.00;;;;;18.40;97377.00;;;;5036352;28;20221;-69
2023/09/03 01:37:35;;;;;;;6.70;4.80;;;;;18.40;97376.00;;;;5042668;28;20200;-68
2023/09/03 01:40:24;;;;;;;5.37;4.83;;;;;18.30;97376.00;;;;5040575;28;20695;-69
2023/09/03 01:43:13;;;;;;;5.23;4.27;;;;;17.80;97375.00;;;;5038304;28;20211;-68
2023/09/03 01:46:07;;;;;;;5.60;4.83;;;;;17.60;97365.00;;;;5030395;28;20221;-68
2023/09/03 01:49:03;;;;;;;6.57;4.77;;;;;17.90;97373.00;;;;5040590;28;20209;-68
2023/09/03 01:52:01;;;;;;;5.43;4.93;;;;;18.20;97381.00;;;;5035279;28;20228;-68
2023/09/03 01:54:52;;;;;;;4.97;4.57;;;;;18.30;97380.00;;;;5037115;28;20221;-69
2023/09/03 01:57:43;;;;;;;7.43;5.17;;;;;18.40;97382.00;;;;5037338;28;20197;-68
2023/09/03 02:00:32;;;;;;;5.13;4.67;;;;;18.20;97373.00;;;;5042260;28;20558;-68
2023/09/03 02:03:23;;;;;;;8.10;4.47;;;;;18.30;97375.00;;;;5047230;28;20200;-69
2023/09/03 02:06:13;;;;;;;7.53;4.40;;;;;18.20;97369.00;;;;5038978;28;20245;-69
2023/09/03 02:09:02;;;;;;;4.57;4.13;;;;;18.10;97367.00;;;;5031753;28;20197;-69
2023/09/03 02:11:51;;;;;;;5.83;4.60;;;;;18.00;97369.00;;;;5030511;28;20720;-68
2023/09/03 02:14:40;;;;;;;5.60;5.00;;;;;18.10;97368.00;;;;5029297;28;20574;-69
2023/09/03 02:17:29;;;;;;;4.60;4.20;;;;;18.30;97371.00;;;;5037335;28;20693;-69
2023/09/03 02:20:19;;;;;;;5.60;4.50;;;;;18.20;97367.00;;;;5042726;28;20204;-69
2023/09/03 02:23:08;;;;;;;9.57;5.10;;;;;18.40;97362.00;;;;5049216;28;20609;-69
2023/09/03 02:26:01;;;;;;;6.00;4.63;;;;;18.30;97361.00;;;;5049333;28;20296;-67
2023/09/03 02:28:50;;;;;;;4.50;4.10;;;;;18.30;97371.00;;;;5043709;28;20211;-69
2023/09/03 02:31:40;;;;;;;4.77;4.30;;;;;18.40;97364.00;;;;5037733;28;20209;-68
2023/09/03 02:34:29;;;;;;;4.73;4.33;;;;;18.10;97369.00;;;;5029056;28;20225;-70
2023/09/03 02:37:19;;;;;;;5.10;4.37;;;;;18.00;97370.00;;;;5029538;28;20680;-68
2023/09/03 02:40:10;;;;;;;4.77;4.33;;;;;17.90;97362.00;;;;5036644;28;20228;-69
2023/09/03 02:42:59;;;;;;;5.03;4.27;;;;;18.20;97374.00;;;;5048094;28;20193;-70
2023/09/03 02:45:48;;;;;;;6.03;5.53;;;;;18.20;97379.00;;;;5041532;28;20228;-69
2023/09/03 02:48:37;;;;;;;4.77;4.37;;;;;18.40;97382.00;;;;5045536;28;20188;-69
2023/09/03 02:51:26;;;;;;;5.40;4.90;;;;;18.50;97385.00;;;;5032286;28;20220;-69
2023/09/03 02:54:16;;;;;;;5.20;4.70;;;;;18.40;97375.00;;;;5037139;28;20201;-70
2023/09/03 02:57:05;;;;;;;7.33;4.67;;;;;18.30;97378.00;;;;5041302;28;20212;-69
2023/09/03 02:59:54;;;;;;;4.97;4.50;;;;;18.60;97380.00;;;;5028663;28;20228;-69
2023/09/03 03:02:43;;;;;;;7.37;5.03;;;;;18.70;97388.00;;;;5033820;28;20201;-69
2023/09/03 03:05:32;;;;;;;5.10;4.60;;;;;18.60;97393.00;;;;5039909;28;20243;-69
2023/09/03 03:08:21;;;;;;;9.93;5.20;;;;;18.70;97400.00;;;;5040279;28;20208;-69
2023/09/03 03:11:14;;;;;;;5.60;4.40;;;;;18.60;97406.00;;;;5038976;28;20209;-69
2023/09/03 03:14:03;;;;;;;5.57;3.97;;;;;18.50;97404.00;;;;5030367;28;20201;-69
2023/09/03 03:16:52;;;;;;;6.00;5.60;;;;;18.50;97405.00;;;;5032620;28;20193;-68
2023/09/03 03:19:41;;;;;;;5.10;4.70;;;;;18.50;97402.00;;;;5035230;28;20584;-69
2023/09/03 03:22:30;;;;;;;13.20;4.63;;;;;18.50;97406.00;;;;5027854;28;20200;-67
2023/09/03 03:25:19;;;;;;;6.60;4.73;;;;;18.50;97407.00;;;;5046777;28;20239;-69
2023/09/03 03:28:09;;;;;;;8.07;5.47;;;;;18.50;97401.00;;;;5048372;28;20223;-69
2023/09/03 03:30:59;;;;;;;9.47;6.37;;;;;18.60;97387.00;;;;5039099;28;20200;-68
2023/09/03 03:33:49;;;;;;;5.20;4.80;;;;;18.60;97388.00;;;;5042898;28;20211;-68
2023/09/03 03:36:38;;;;;;;5.87;4.93;;;;;18.40;97395.00;;;;5027837;28;20228;-70
2023/09/03 03:39:27;;;;;;;5.70;5.17;;;;;18.50;97394.00;;;;5027211;28;20225;-69
2023/09/03 03:42:16;;;;;;;5.57;5.03;;;;;18.60;97397.00;;;;5028121;28;20205;-69
2023/09/03 03:45:07;;;;;;;4.40;4.00;;;;;18.50;97404.00;;;;5042442;28;20239;-69
2023/09/03 03:47:56;;;;;;;4.73;4.33;;;;;18.40;97397.00;;;;5039884;28;20204;-69
2023/09/03 03:50:46;;;;;;;5.43;4.37;;;;;18.50;97412.00;;;;5038044;28;20277;-69
2023/09/03 03:53:35;;;;;;;5.70;5.07;;;;;18.40;97403.00;;;;5027722;28;20577;-68
2023/09/03 03:56:24;;;;;;;5.80;4.43;;;;;18.20;97408.00;;;;5030122;28;20696;-67
2023/09/03 03:59:13;;;;;;;5.03;4.63;;;;;18.00;97406.00;;;;5034424;28;20228;-68
2023/09/03 04:02:03;;;;;;;5.13;4.63;;;;;17.70;97412.00;;;;5037240;28;20204;-68
2023/09/03 04:04:54;;;;;;;6.10;5.50;;;;;18.10;97418.00;;;;5043972;23;20790;-84
2023/09/03 04:07:44;;;;;;;6.10;5.50;;;;;18.20;97421.00;;;;5047750;28;20201;-84
2023/09/03 04:10:33;;;;;;;8.70;4.77;;;;;18.10;97420.00;;;;5057014;28;20704;-84
2023/09/03 04:13:22;;;;;;;6.23;5.10;;;;;17.90;97426.00;;;;5051636;28;20219;-84
2023/09/03 04:16:15;;;;;;;5.83;5.23;;;;;17.80;97422.00;;;;5051144;28;20224;-84
2023/09/03 04:19:05;;;;;;;8.10;4.87;;;;;17.70;97429.00;;;;5051321;28;20192;-84
2023/09/03 04:21:54;;;;;;;6.53;5.40;;;;;18.20;97431.00;;;;5052314;28;20227;-85
2023/09/03 04:24:43;;;;;;;6.77;5.73;;;;;18.30;97433.00;;;;5054615;28;20687;-84
2023/09/03 04:27:32;;;;;;;6.50;5.57;;;;;18.50;97446.00;;;;5051936;28;20208;-84
2023/09/03 04:30:21;;;;;;;6.13;5.53;;;;;18.10;97446.00;;;;5049962;28;20208;-84
2023/09/03 04:33:10;;;;;;;6.20;5.03;;;;;18.10;97446.00;;;;5052838;28;20200;-85
2023/09/03 04:36:03;;;;;;;10.70;5.93;;;;;18.40;97445.00;;;;5050083;28;20216;-85
2023/09/03 04:38:52;;;;;;;6.93;6.23;;;;;18.20;97444.00;;;;5053168;28;20204;-85
2023/09/03 04:41:41;;;;;;;6.27;5.67;;;;;18.30;97444.00;;;;5044888;28;20224;-87
2023/09/03 04:44:30;;;;;;;9.80;5.63;;;;;18.40;97444.00;;;;5050873;28;20295;-85
2023/09/03 04:47:19;;;;;;;6.93;5.20;;;;;18.50;97456.00;;;;5050658;28;20212;-85
2023/09/03 04:50:10;;;;;;;7.93;6.20;;;;;18.60;97453.00;;;;5049456;28;20212;-84
2023/09/03 04:53:00;;;;;;;9.13;5.20;;;;;18.70;97452.00;;;;5051980;28;20204;-84
2023/09/03 04:55:49;;;;;;;7.27;6.10;;;;;18.80;97457.00;;;;5046368;28;20603;-85
2023/09/03 04:58:38;;;;;;;5.73;4.47;;;;;19.00;97449.00;;;;5047936;28;20208;-86
2023/09/03 05:01:27;;;;;;;9.10;5.83;;;;;19.00;97448.00;;;;5045922;28;20685;-86
2023/09/03 05:04:16;;;;;;;7.37;6.33;;;;;18.80;97451.00;;;;5050508;28;20262;-86
2023/09/03 05:07:06;;;;;;;5.60;4.93;;;;;18.60;97452.00;;;;5050112;28;20401;-86
2023/09/03 05:09:57;;;;;;;9.97;5.97;;;;;18.40;97450.00;;;;5050623;28;20184;-86
2023/09/03 05:12:46;;;;;;;5.73;5.13;;;;;18.40;97461.00;;;;5050609;28;20212;-85
2023/09/03 05:15:36;;;;;;;6.57;5.37;;;;;18.90;97461.00;;;;5050648;28;20208;-85
2023/09/03 05:18:25;;;;;;;6.47;5.40;;;;;18.90;97452.00;;;;5048283;28;20225;-86
2023/09/03 05:21:14;;;;;;;6.13;5.53;;;;;18.90;97458.00;;;;5047593;28;20235;-85
2023/09/03 05:24:04;;;;;;;7.47;5.60;;;;;18.90;97455.00;;;;5049701;28;20209;-85
2023/09/03 05:26:54;;;;;;;5.57;5.00;;;;;18.90;97458.00;;;;5050352;28;20203;-85
2023/09/03 05:29:43;;;;;;;7.20;4.63;;;;;19.20;97463.00;;;;5044458;28;20587;-85
2023/09/03 05:32:32;;;;;;;6.47;4.43;;;;;19.20;97468.00;;;;5042490;28;20220;-86
2023/09/03 05:35:21;;;;;;;5.00;4.57;;;;;19.20;97473.00;;;;5049481;28;20208;-86
2023/09/03 05:38:10;;;;;;;6.70;4.60;;;;;19.30;97481.00;;;;5049771;28;20326;-86
2023/09/03 05:40:59;;;;;;;6.50;4.33;;;;;19.20;97480.00;;;;5049948;28;20228;-85
2023/09/03 05:43:53;;;;;;;4.87;4.47;;;;;19.00;97478.00;;;;5044184;28;20714;-85
2023/09/03 05:46:43;;;;;;;5.63;5.13;;;;;19.10;97483.00;;;;5043007;28;20197;-86
2023/09/03 05:49:31;;;;;;;5.77;5.07;;;;;19.00;97485.00;;;;5041979;28;20228;-85
2023/09/03 05:52:21;;;;;;;6.67;5.07;;;;;18.80;97479.00;;;;5049715;28;20225;-84
2023/09/03 05:55:10;;;;;;;5.07;4.67;;;;;19.00;97477.00;;;;5049404;28;20212;-85
2023/09/03 05:57:59;;;;;;;6.23;4.70;;;;;19.10;97453.00;;;;5049836;28;20204;-85
2023/09/03 06:00:50;;;;;;;6.30;5.60;;;;;19.00;97451.00;;;;5050108;28;20224;-86
2023/09/03 06:03:40;;;;;;;9.60;5.30;;;;;19.40;97469.00;;;;5044120;28;20200;-85
2023/09/03 06:06:29;;;;;;;5.70;4.60;;;;;19.60;97477.00;;;;5045908;28;20688;-85
2023/09/03 06:09:18;;;;;;;7.20;4.67;;;;;19.80;97480.00;;;;5049713;28;20208;-85
2023/09/03 06:12:08;;;;;;;6.53;5.93;;;;;19.60;97491.00;;;;5049078;28;20615;-85
2023/09/03 06:14:57;;;;;;;5.70;5.10;;;;;19.70;97484.00;;;;5050534;28;20205;-86
2023/09/03 06:17:50;;;;;;;7.07;5.60;;;;;20.00;97489.00;;;;5043835;28;20676;-86
2023/09/03 06:20:39;;;;;;;7.47;5.10;;;;;20.60;97477.00;;;;5043731;28;20274;-86
2023/09/03 06:23:28;;;;;;;7.23;5.27;;;;;20.60;97483.00;;;;5042604;28;20228;-86
2023/09/03 06:26:17;;;;;;;6.53;5.30;;;;;20.50;97489.00;;;;5048822;28;20585;-86
2023/09/03 06:29:06;;;;;;;5.03;4.53;;;;;20.50;97482.00;;;;5048665;28;20196;-86
2023/09/03 06:31:55;;;;;;;9.37;5.10;;;;;20.50;97483.00;;;;5049183;28;20217;-86
2023/09/03 06:34:46;;;;;;;8.77;5.43;;;;;20.80;97478.00;;;;5044269;28;20193;-87
2023/09/03 06:37:35;;;;;;;5.03;4.37;;;;;20.90;97478.00;;;;5049845;28;20200;-87
2023/09/03 06:40:24;;;;;;;4.90;4.17;;;;;21.00;97485.00;;;;5048991;28;20233;-87
2023/09/03 06:43:13;;;;;;;5.33;4.80;;;;;21.00;97487.00;;;;5048413;28;20205;-86
2023/09/03 06:46:02;;;;;;;5.93;5.27;;;;;21.00;97490.00;;;;5048788;28;20197;-85
2023/09/03 06:48:51;;;;;;;6.37;5.27;;;;;21.10;97483.00;;;;5049789;28;20203;-85
2023/09/03 06:51:42;;;;;;;6.83;4.77;;;;;21.40;97495.00;;;;5049962;28;20712;-85
2023/09/03 06:54:31;;;;;;;8.50;5.60;;;;;21.40;97496.00;;;;5042464;28;20201;-85
2023/09/03 06:57:20;;;;;;;6.33;5.40;;;;;21.70;97505.00;;;;5048211;28;20223;-86
2023/09/03 07:00:16;;;;;;;7.17;6.50;;;;;21.70;97516.00;;;;5048073;28;20669;-84
2023/09/03 07:03:06;;;;;;;5.97;5.17;;;;;22.00;97509.00;;;;5049249;28;20197;-85
2023/09/03 07:05:55;;;;;;;5.23;4.73;;;;;22.10;97517.00;;;;5049595;28;20247;-84
2023/09/03 07:08:45;;;;;;;6.40;4.80;;;;;22.10;97514.00;;;;5049087;28;20228;-86
2023/09/03 07:11:34;;;;;;;5.70;5.00;;;;;22.20;97517.00;;;;5041349;28;20614;-87
2023/09/03 07:14:23;;;;;;;4.90;4.33;;;;;21.90;97512.00;;;;5048831;28;20201;-85
2023/09/03 07:17:12;;;;;;;5.60;4.90;;;;;22.10;97522.00;;;;5048470;28;20208;-85
2023/09/03 07:20:02;;;;;;;5.23;4.73;;;;;22.20;97528.00;;;;5040919;28;20460;-85
2023/09/03 07:22:51;;;;;;;7.80;5.47;;;;;22.60;97519.00;;;;5044251;28;20204;-85
2023/09/03 07:25:42;;;;;;;7.50;5.80;;;;;23.00;97521.00;;;;5042163;28;20200;-87
2023/09/03 07:28:31;;;;;;;6.63;5.53;;;;;23.20;97519.00;;;;5040780;28;20201;-86
2023/09/03 07:31:22;;;;;;;6.87;6.17;;;;;23.10;97526.00;;;;5048999;28;20723;-85
2023/09/03 07:34:11;;;;;;;9.10;5.83;;;;;23.10;97534.00;;;;5049079;28;20204;-85
2023/09/03 07:37:01;;;;;;;6.80;5.77;;;;;22.80;97531.00;;;;5049168;28;20258;-85
2023/09/03 07:39:50;;;;;;;5.37;4.47;;;;;22.80;97536.00;;;;5043227;28;20207;-86
2023/09/03 07:42:40;;;;;;;5.43;4.83;;;;;22.60;97532.00;;;;5048425;28;20228;-85
2023/09/03 07:45:29;;;;;;;7.03;5.80;;;;;22.70;97533.00;;;;5047521;28;20208;-86
2023/09/03 07:48:18;;;;;;;6.30;5.40;;;;;23.00;97542.00;;;;5049771;28;20207;-85
2023/09/03 07:51:07;;;;;;;6.23;5.63;;;;;23.00;97539.00;;;;5051336;28;20217;-85
2023/09/03 07:53:56;;;;;;;6.40;5.63;;;;;23.40;97537.00;;;;5048143;28;20451;-85
2023/09/03 07:56:45;;;;;;;7.87;5.27;;;;;24.10;97544.00;;;;5043163;28;20201;-86
2023/09/03 07:59:36;;;;;;;8.23;5.87;;;;;24.40;97532.00;;;;5041096;28;20227;-85
2023/09/03 08:02:25;;;;;;;6.43;5.47;;;;;24.40;97527.00;;;;5059485;28;20236;-84
2023/09/03 08:05:14;;;;;;;7.47;4.57;;;;;24.30;97520.00;;;;5056005;28;20212;-85
2023/09/03 08:08:03;;;;;;;7.97;5.67;;;;;24.40;97530.00;;;;5058132;28;20591;-84
2023/09/03 08:10:52;;;;;;;5.87;4.73;;;;;24.30;97530.00;;;;5057551;28;20239;-85
2023/09/03 08:13:41;;;;;;;5.23;4.50;;;;;24.70;97536.00;;;;5058986;28;20679;-84
2023/09/03 08:16:31;;;;;;;5.30;4.80;;;;;24.80;97537.00;;;;5063361;28;20203;-84
2023/09/03 08:19:21;;;;;;;6.83;5.37;;;;;24.70;97535.00;;;;5071009;28;20711;-85
2023/09/03 08:22:10;;;;;;;5.53;4.97;;;;;24.30;97541.00;;;;5066915;28;20220;-85
2023/09/03 08:24:59;;;;;;;6.40;5.10;;;;;24.80;97551.00;;;;5056483;28;20590;-87
2023/09/03 08:27:48;;;;;;;5.50;4.90;;;;;25.00;97561.00;;;;5046823;28;20192;-87
2023/09/03 08:30:37;;;;;;;5.97;5.37;;;;;24.90;97563.00;;;;5043263;28;20227;-88
2023/09/03 08:33:28;;;;;;;7.70;5.60;;;;;25.00;97552.00;;;;5052182;28;20205;-87
2023/09/03 08:36:17;;;;;;;5.73;4.77;;;;;25.10;97564.00;;;;5050936;28;20204;-87
2023/09/03 08:39:06;;;;;;;8.67;4.47;;;;;25.10;97556.00;;;;5050377;28;20193;-87
2023/09/03 08:41:55;;;;;;;5.17;4.63;;;;;25.20;97559.00;;;;5049580;28;20413;-87
2023/09/03 08:44:52;;;;;;;6.20;5.27;;;;;25.00;97554.00;;;;5056666;28;20211;-87
2023/09/03 08:47:44;;;;;;;7.33;4.73;;;;;25.10;97561.00;;;;5059768;28;20204;-87
2023/09/03 08:50:35;;;;;;;6.17;4.17;;;;;25.20;97557.00;;;;5057634;28;20466;-88
2023/09/03 08:53:25;;;;;;;5.20;4.70;;;;;25.40;97561.00;;;;5053200;28;21069;-86
2023/09/03 08:56:14;;;;;;;5.83;5.03;;;;;25.50;97554.00;;;;5050976;28;20740;-86
2023/09/03 08:59:03;;;;;;;7.43;5.33;;;;;25.60;97555.00;;;;5060033;28;20572;-88
2023/09/03 09:01:55;;;;;;;7.10;4.70;;;;;25.90;97552.00;;;;5049993;28;20232;-88
2023/09/03 09:04:44;;;;;;;5.60;4.37;;;;;26.00;97558.00;;;;5047811;28;20217;-87
2023/09/03 09:07:35;;;;;;;5.60;4.20;;;;;26.10;97551.00;;;;5055931;28;20208;-88
2023/09/03 09:10:32;;;;;;;5.70;4.70;;;;;26.30;97562.00;;;;5054149;28;20205;-85
2023/09/03 09:13:24;;;;;;;5.17;4.67;;;;;26.20;97553.00;;;;5051974;28;20204;-88
2023/09/03 09:16:13;;;;;;;6.27;5.17;;;;;26.10;97564.00;;;;5052957;28;20205;-85
2023/09/03 09:19:02;;;;;;;5.80;5.17;;;;;26.40;97562.00;;;;5046276;28;20199;-84
2023/09/03 09:21:51;;;;;;;6.97;5.60;;;;;26.50;97567.00;;;;5048595;28;20256;-87
2023/09/03 09:24:45;;;;;;;6.07;5.07;;;;;26.30;97560.00;;;;5046363;28;20204;-87
2023/09/03 09:27:37;;;;;;;5.80;5.20;;;;;26.30;97553.00;;;;5048310;28;20217;-85
2023/09/03 09:30:27;;;;;;;6.17;5.07;;;;;26.50;97555.00;;;;5057719;28;20208;-86
2023/09/03 09:33:16;;;;;;;6.53;5.23;;;;;26.40;97550.00;;;;5052414;28;20205;-87
2023/09/03 09:36:12;;;;;;;5.93;4.67;;;;;26.20;97544.00;;;;5053077;28;20801;-83
2023/09/03 09:39:08;;;;;;;6.57;5.30;;;;;26.30;97550.00;;;;5052087;28;20197;-87
2023/09/03 09:42:10;;;;;;;6.20;4.87;;;;;26.40;97550.00;;;;5047412;28;20225;-86
2023/09/03 09:45:00;;;;;;;6.17;4.53;;;;;26.40;97556.00;;;;5047323;28;20200;-87
2023/09/03 09:47:53;;;;;;;5.63;4.57;;;;;26.50;97569.00;;;;5046063;28;20196;-85
2023/09/03 09:50:45;;;;;;;5.20;4.70;;;;;26.50;97572.00;;;;5046792;28;20225;-86
2023/09/03 09:53:34;;;;;;;5.30;4.13;;;;;26.20;97572.00;;;;5050328;28;20198;-85
2023/09/03 09:56:26;;;;;;;5.30;4.40;;;;;26.30;97569.00;;;;5049933;28;20209;-87
2023/09/03 09:59:27;;;;;;;4.77;4.07;;;;;26.40;97572.00;;;;5049087;28;20217;-86
2023/09/03 10:02:17;;;;;;;6.17;4.40;;;;;26.20;97565.00;;;;5050590;28;20614;-86
2023/09/03 10:05:11;;;;;;;4.40;4.00;;;;;26.00;97564.00;;;;5049460;28;20296;-85
2023/09/03 10:08:01;;;;;;;4.40;4.00;;;;;26.40;97575.00;;;;5060788;28;20586;-85
2023/09/03 10:10:50;;;;;;;4.60;4.00;;;;;26.60;97578.00;;;;5043417;28;20694;-84
2023/09/03 10:13:41;;;;;;;4.30;3.90;;;;;26.70;97571.00;;;;5043028;28;20197;-85
2023/09/03 10:16:32;;;;;;;3.87;3.47;;;;;27.00;97574.00;;;;5041239;28;20208;-84
2023/09/03 10:19:23;;;;;;;5.10;4.27;;;;;27.10;97564.00;;;;5055161;23;20233;-73
2023/09/03 10:22:15;;;;;;;5.00;4.50;;;;;26.80;97573.00;;;;5047842;28;20602;-72
2023/09/03 10:25:08;;;;;;;4.90;4.40;;;;;27.00;97576.00;;;;5048399;28;20221;-76
2023/09/03 10:28:00;;;;;;;5.50;4.57;;;;;27.10;97577.00;;;;5044602;28;20579;-73
2023/09/03 10:30:51;;;;;;;4.40;4.00;;;;;27.00;97578.00;;;;5045736;28;20213;-73
2023/09/03 10:33:42;;;;;;;4.93;4.23;;;;;27.20;97579.00;;;;5049381;28;20666;-72
2023/09/03 10:36:31;;;;;;;4.57;4.00;;;;;27.50;97566.00;;;;5048670;28;20226;-73
2023/09/03 10:39:23;;;;;;;6.60;3.90;;;;;27.60;97561.00;;;;5048617;28;20209;-74
2023/09/03 10:42:29;;;;;;;7.77;4.50;;;;;27.80;97548.00;;;;5047748;28;20215;-74
2023/09/03 10:45:18;;;;;;;4.73;4.23;;;;;28.10;97556.00;;;;5046920;28;20222;-72
2023/09/03 10:48:07;;;;;;;6.03;3.70;;;;;28.40;97560.00;;;;5048651;28;20207;-72
2023/09/03 10:50:58;;;;;;;4.50;3.63;;;;;28.20;97563.00;;;;5045815;28;20222;-72
2023/09/03 10:53:47;;;;;;;4.13;3.73;;;;;28.10;97541.00;;;;5047520;28;20223;-72
2023/09/03 10:56:36;;;;;;;4.90;4.50;;;;;28.40;97548.00;;;;5048341;28;20228;-73
2023/09/03 10:59:25;;;;;;;5.10;3.70;;;;;27.90;97543.00;;;;5047294;28;20739;-73
2023/09/03 11:02:25;;;;;;;5.77;4.10;;;;;28.20;97553.00;;;;5047653;28;20251;-73
2023/09/03 11:05:19;;;;;;;7.30;3.90;;;;;27.80;97539.00;;;;5045489;28;20277;-72
2023/09/03 11:08:31;;;;;;;3.83;3.43;;;;;28.70;97535.00;;;;5045402;28;20204;-73
2023/09/03 11:11:21;;;;;;;3.90;3.50;;;;;28.50;97554.00;;;;5046860;28;20655;-75
2023/09/03 11:14:10;;;;;;;6.43;4.00;;;;;27.90;97551.00;;;;5048870;28;20203;-72
2023/09/03 11:17:00;;;;;;;3.97;3.57;;;;;28.00;97555.00;;;;5046827;28;20606;-73
2023/09/03 11:19:49;;;;;;;4.43;3.60;;;;;28.10;97549.00;;;;5041683;28;20213;-72
2023/09/03 11:22:38;;;;;;;4.57;3.53;;;;;28.30;97548.00;;;;5040765;28;20244;-73
2023/09/03 11:25:36;;;;;;;4.17;3.73;;;;;28.30;97546.00;;;;5046878;28;20229;-73
2023/09/03 11:28:25;;;;;;;3.83;3.53;;;;;27.90;97542.00;;;;5047151;28;20216;-72
2023/09/03 11:31:14;;;;;;;7.17;3.97;;;;;27.80;97537.00;;;;5046935;28;20211;-74
2023/09/03 11:34:18;;;;;;;12.30;4.83;;;;;27.90;97548.00;;;;5045530;28;20203;-71
2023/09/03 11:37:09;;;;;;;3.80;3.50;;;;;28.40;97537.00;;;;5046485;28;20246;-72
2023/09/03 11:39:58;;;;;;;4.13;3.73;;;;;28.40;97545.00;;;;5046303;28;20206;-71
2023/09/03 11:42:50;;;;;;;3.43;3.10;;;;;28.40;97548.00;;;;5043947;28;20221;-72
2023/09/03 11:45:39;;;;;;;4.10;3.57;;;;;28.50;97544.00;;;;5047782;28;20616;-71
2023/09/03 11:48:30;;;;;;;3.33;3.03;;;;;28.70;97536.00;;;;5049274;28;20673;-72
2023/09/03 11:51:26;;;;;;;5.43;3.83;;;;;30.10;97530.00;;;;5048277;28;20591;-71
2023/09/03 11:54:23;;;;;;;4.37;3.30;;;;;30.60;97558.00;;;;5045679;28;20197;-72
2023/09/03 11:57:14;;;;;;;3.70;3.33;;;;;30.20;97561.00;;;;5044332;28;20957;-72
2023/09/03 12:00:06;;;;;;;5.00;3.87;;;;;29.90;97525.00;;;;5048943;28;20207;-73
2023/09/03 12:02:56;;;;;;;4.07;3.50;;;;;30.60;97528.00;;;;5044925;28;20225;-73
2023/09/03 12:05:45;;;;;;;4.47;3.00;;;;;30.20;97545.00;;;;5046126;28;20229;-71
2023/09/03 12:08:34;;;;;;;3.97;3.57;;;;;29.50;97525.00;;;;5045899;28;20214;-71
2023/09/03 12:11:29;;;;;;;3.43;2.97;;;;;28.90;97538.00;;;;5046662;28;20203;-72
2023/09/03 12:14:29;;;;;;;3.10;2.87;;;;;28.90;97552.00;;;;5044235;28;20203;-71
2023/09/03 12:17:25;;;;;;;2.97;2.67;;;;;29.50;97553.00;;;;5045530;28;20213;-74
2023/09/03 12:20:36;;;;;;;3.10;2.80;;;;;30.00;97529.00;;;;5044418;28;20207;-71
2023/09/03 12:23:26;;;;;;;3.77;2.90;;;;;29.40;97517.00;;;;5044937;28;20219;-73
2023/09/03 12:26:18;;;;;;;3.50;2.10;;;;;30.20;97495.00;;;;5044806;28;20791;-72
2023/09/03 12:29:20;;;;;;;2.87;2.40;;;;;29.90;97515.00;;;;5046876;28;20210;-73
2023/09/03 12:32:10;;;;;;;3.23;2.53;;;;;30.90;97525.00;;;;5044493;28;20211;-72
2023/09/03 12:35:00;;;;;;;4.23;2.67;;;;;30.90;97529.00;;;;5048537;28;20215;-73
2023/09/03 12:37:50;;;;;;;3.90;2.70;;;;;31.00;97529.00;;;;5047716;28;20211;-72
2023/09/03 12:40:39;;;;;;;5.60;2.83;;;;;30.30;97530.00;;;;5049627;28;20200;-72
2023/09/03 12:43:37;;;;;;;2.55;2.35;;;;;29.50;97492.00;;;;5052287;28;20261;-72
2023/09/03 12:46:26;;;;;;;3.37;2.60;;;;;29.40;97494.00;;;;5049033;28;20702;-72
2023/09/03 12:49:15;;;;;;;3.00;2.53;;;;;30.10;97499.00;;;;5048472;28;20207;-73
2023/09/03 12:52:06;;;;;;;2.83;2.07;;;;;30.10;97499.00;;;;5047625;28;20215;-72
2023/09/03 12:54:55;;;;;;;2.90;2.60;;;;;30.40;97503.00;;;;5049131;28;20852;-71
2023/09/03 12:57:44;;;;;;;2.92;2.30;;;;;31.00;97509.00;;;;5049812;28;20690;-71
2023/09/03 13:00:33;;;;;;;2.75;2.22;;;;;31.20;97518.00;;;;5051292;28;20207;-71
2023/09/03 13:03:22;;;;;;;2.55;2.35;;;;;31.10;97517.00;;;;5050497;28;20659;-71
2023/09/03 13:06:12;;;;;;;3.03;2.30;;;;;31.40;97521.00;;;;5049897;28;20228;-71
2023/09/03 13:09:03;;;;;;;3.28;2.42;;;;;31.10;97525.00;;;;5048137;28;20203;-71
2023/09/03 13:11:52;;;;;;;3.13;2.83;;;;;31.10;97505.00;;;;5050349;28;20205;-71
2023/09/03 13:14:41;;;;;;;2.53;2.33;;;;;30.90;97517.00;;;;5048304;28;20208;-72
2023/09/03 13:17:31;;;;;;;3.45;2.55;;;;;30.60;97516.00;;;;5047870;28;20223;-72
2023/09/03 13:20:21;;;;;;;3.08;2.38;;;;;30.00;97503.00;;;;5050739;28;20201;-73
2023/09/03 13:23:10;;;;;;;2.25;2.03;;;;;30.10;97501.00;;;;5049901;28;20592;-71
2023/09/03 13:26:01;;;;;;;3.15;2.10;;;;;30.60;97520.00;;;;5048535;28;20235;-72
2023/09/03 13:28:50;;;;;;;2.85;2.35;;;;;29.20;97520.00;;;;5043566;28;20207;-71
2023/09/03 13:31:39;;;;;;;2.40;2.20;;;;;28.70;97533.00;;;;5050241;28;20208;-71
2023/09/03 13:34:28;;;;;;;2.23;1.93;;;;;28.70;97536.00;;;;5050358;28;20697;-71
2023/09/03 13:37:17;;;;;;;3.00;2.70;;;;;28.80;97541.00;;;;5049057;28;20211;-71
2023/09/03 13:40:07;;;;;;;2.20;2.00;;;;;28.70;97529.00;;;;5050194;28;20558;-72
2023/09/03 13:42:57;;;;;;;3.53;1.93;;;;;28.80;97533.00;;;;5048387;28;20215;-72
2023/09/03 13:45:53;;;;;;;4.53;2.57;;;;;28.90;97524.00;;;;5043632;28;20235;-71
2023/09/03 13:48:42;;;;;;;2.70;2.40;;;;;28.70;97529.00;;;;5046613;28;20210;-71
2023/09/03 13:51:31;;;;;;;5.33;2.80;;;;;28.80;97525.00;;;;5049124;28;20218;-71
2023/09/03 13:54:20;;;;;;;3.73;2.13;;;;;29.00;97505.00;;;;5049508;28;20284;-71
2023/09/03 13:57:09;;;;;;;2.87;2.20;;;;;28.60;97514.00;;;;5049266;28;20698;-73
2023/09/03 13:59:59;;;;;;;3.13;1.70;;;;;28.70;97511.00;;;;5049913;28;20588;-71
2023/09/03 14:02:49;;;;;;;5.10;3.03;;;;;28.80;97509.00;;;;5050674;28;20212;-71
2023/09/03 14:05:38;;;;;;;2.10;1.90;;;;;29.00;97494.00;;;;5041989;28;20254;-72
2023/09/03 14:08:27;;;;;;;1.70;1.30;;;;;28.20;97482.00;;;;5049828;28;20205;-70
2023/09/03 14:11:16;;;;;;;1.50;1.23;;;;;28.50;97482.00;;;;5048586;28;20864;-72
2023/09/03 14:14:06;;;;;;;1.93;1.53;;;;;29.50;97459.00;;;;5049175;28;20199;-71